sensor_id;sensor_type;location;lat;lon;timestamp;pressure;altitude;pressure_sealevel;temperature;humidity
35892;BME280;21993;42.672;23.296;2023-04-28T00:01:14;94932.31;;;10.03;45.08
35892;BME280;21993;42.672;23.296;2023-04-28T00:03:40;94933.69;;;9.86;46.02
35892;BME280;21993;42.672;23.296;2023-04-28T00:06:05;94933.31;;;9.91;45.19
35892;BME280;21993;42.672;23.296;2023-04-28T00:08:31;94934.25;;;9.90;45.41
35892;BME280;21993;42.672;23.296;2023-04-28T00:10:56;94936.47;;;9.74;45.77
35892;BME280;21993;42.672;23.296;2023-04-28T00:13:22;94936.47;;;9.74;46.15
35892;BME280;21993;42.672;23.296;2023-04-28T00:15:51;94937.50;;;9.82;45.78
35892;BME280;21993;42.672;23.296;2023-04-28T00:18:19;94945.06;;;9.76;45.95
35892;BME280;21993;42.672;23.296;2023-04-28T00:20:45;94935.06;;;9.70;45.83
35892;BME280;21993;42.672;23.296;2023-04-28T00:23:11;94937.22;;;9.65;46.10
35892;BME280;21993;42.672;23.296;2023-04-28T00:25:36;94939.47;;;9.69;45.65
35892;BME280;21993;42.672;23.296;2023-04-28T00:28:02;94945.28;;;9.73;45.74
35892;BME280;21993;42.672;23.296;2023-04-28T00:30:29;94942.69;;;9.73;45.94
35892;BME280;21993;42.672;23.296;2023-04-28T00:32:54;94939.47;;;9.69;46.03
35892;BME280;21993;42.672;23.296;2023-04-28T00:35:20;94949.28;;;9.67;46.17
35892;BME280;21993;42.672;23.296;2023-04-28T00:37:45;94941.72;;;9.42;46.82
35892;BME280;21993;42.672;23.296;2023-04-28T00:40:11;94952.50;;;9.48;46.42
35892;BME280;21993;42.672;23.296;2023-04-28T00:42:36;94956.13;;;9.36;46.19
35892;BME280;21993;42.672;23.296;2023-04-28T00:45:02;94956.25;;;9.35;46.64
35892;BME280;21993;42.672;23.296;2023-04-28T00:47:35;94955.44;;;9.34;47.39
35892;BME280;21993;42.672;23.296;2023-04-28T00:50:01;94958.38;;;9.41;47.13
35892;BME280;21993;42.672;23.296;2023-04-28T00:52:28;94962.78;;;9.40;47.01
35892;BME280;21993;42.672;23.296;2023-04-28T00:54:54;94963.38;;;9.44;47.39
35892;BME280;21993;42.672;23.296;2023-04-28T00:57:21;94962.22;;;9.25;47.20
35892;BME280;21993;42.672;23.296;2023-04-28T00:59:47;94961.59;;;9.33;46.92
35892;BME280;21993;42.672;23.296;2023-04-28T01:02:13;94964.00;;;9.36;46.98
35892;BME280;21993;42.672;23.296;2023-04-28T01:04:43;94958.66;;;9.15;47.46
35892;BME280;21993;42.672;23.296;2023-04-28T01:07:09;94959.72;;;9.13;47.59
35892;BME280;21993;42.672;23.296;2023-04-28T01:09:34;94960.53;;;9.24;47.46
35892;BME280;21993;42.672;23.296;2023-04-28T01:12:00;94968.53;;;9.23;47.28
35892;BME280;21993;42.672;23.296;2023-04-28T01:14:26;94971.03;;;9.13;47.36
35892;BME280;21993;42.672;23.296;2023-04-28T01:16:52;94968.53;;;9.12;47.57
35892;BME280;21993;42.672;23.296;2023-04-28T01:19:21;94967.13;;;8.85;46.87
35892;BME280;21993;42.672;23.296;2023-04-28T01:21:50;94977.00;;;8.93;47.45
35892;BME280;21993;42.672;23.296;2023-04-28T01:24:16;94971.75;;;9.04;47.45
35892;BME280;21993;42.672;23.296;2023-04-28T01:26:42;94968.06;;;8.95;47.58
35892;BME280;21993;42.672;23.296;2023-04-28T01:29:07;94967.72;;;8.89;47.28
35892;BME280;21993;42.672;23.296;2023-04-28T01:31:32;94974.97;;;8.96;47.18
35892;BME280;21993;42.672;23.296;2023-04-28T01:33:58;94970.69;;;8.95;46.55
35892;BME280;21993;42.672;23.296;2023-04-28T01:36:24;94966.28;;;8.85;47.17
35892;BME280;21993;42.672;23.296;2023-04-28T01:38:51;94970.19;;;8.90;47.18
35892;BME280;21993;42.672;23.296;2023-04-28T01:41:17;94977.84;;;8.93;47.42
35892;BME280;21993;42.672;23.296;2023-04-28T01:43:42;94971.28;;;8.77;47.57
35892;BME280;21993;42.672;23.296;2023-04-28T01:46:08;94977.22;;;8.90;47.89
35892;BME280;21993;42.672;23.296;2023-04-28T01:48:34;94977.22;;;8.90;47.62
35892;BME280;21993;42.672;23.296;2023-04-28T01:50:59;94972.50;;;8.84;46.68
35892;BME280;21993;42.672;23.296;2023-04-28T01:53:25;94966.66;;;8.91;47.16
35892;BME280;21993;42.672;23.296;2023-04-28T01:55:50;94967.38;;;8.93;46.79
35892;BME280;21993;42.672;23.296;2023-04-28T01:58:16;94969.88;;;8.84;47.57
35892;BME280;21993;42.672;23.296;2023-04-28T02:00:41;94976.41;;;8.89;47.04
35892;BME280;21993;42.672;23.296;2023-04-28T02:03:06;94980.44;;;8.71;47.24
35892;BME280;21993;42.672;23.296;2023-04-28T02:05:32;94971.66;;;8.83;46.95
35892;BME280;21993;42.672;23.296;2023-04-28T02:07:57;94978.19;;;8.78;46.78
35892;BME280;21993;42.672;23.296;2023-04-28T02:10:23;94976.66;;;8.75;47.05
35892;BME280;21993;42.672;23.296;2023-04-28T02:12:48;94975.69;;;8.76;46.65
35892;BME280;21993;42.672;23.296;2023-04-28T02:15:13;94980.19;;;8.63;47.81
35892;BME280;21993;42.672;23.296;2023-04-28T02:17:39;94982.69;;;8.64;47.86
35892;BME280;21993;42.672;23.296;2023-04-28T02:20:05;94988.28;;;8.60;47.57
35892;BME280;21993;42.672;23.296;2023-04-28T02:22:31;94985.66;;;8.71;46.91
35892;BME280;21993;42.672;23.296;2023-04-28T02:24:57;94986.38;;;8.73;48.18
35892;BME280;21993;42.672;23.296;2023-04-28T02:27:22;94985.78;;;8.69;47.51
35892;BME280;21993;42.672;23.296;2023-04-28T02:29:48;94986.88;;;8.67;48.03
35892;BME280;21993;42.672;23.296;2023-04-28T02:32:13;94992.44;;;8.73;47.88
35892;BME280;21993;42.672;23.296;2023-04-28T02:34:39;94988.88;;;8.63;48.37
35892;BME280;21993;42.672;23.296;2023-04-28T02:37:04;94988.16;;;8.61;47.80
35892;BME280;21993;42.672;23.296;2023-04-28T02:42:44;95001.44;;;8.47;48.90
35892;BME280;21993;42.672;23.296;2023-04-28T02:45:09;95006.47;;;8.26;48.80
35892;BME280;21993;42.672;23.296;2023-04-28T02:47:35;94997.28;;;8.44;48.86
35892;BME280;21993;42.672;23.296;2023-04-28T02:50:01;95014.50;;;8.36;48.81
35892;BME280;21993;42.672;23.296;2023-04-28T02:52:27;95001.69;;;8.44;48.13
35892;BME280;21993;42.672;23.296;2023-04-28T02:54:52;94995.84;;;8.40;48.28
35892;BME280;21993;42.672;23.296;2023-04-28T02:57:21;95004.56;;;8.52;47.76
35892;BME280;21993;42.672;23.296;2023-04-28T02:59:46;95011.44;;;8.53;48.09
35892;BME280;21993;42.672;23.296;2023-04-28T03:02:12;95016.88;;;8.39;48.15
35892;BME280;21993;42.672;23.296;2023-04-28T03:04:37;95013.31;;;8.40;48.84
35892;BME280;21993;42.672;23.296;2023-04-28T03:07:03;95010.94;;;8.37;48.94
35892;BME280;21993;42.672;23.296;2023-04-28T03:09:28;95012.38;;;8.41;47.90
35892;BME280;21993;42.672;23.296;2023-04-28T03:11:53;95014.59;;;8.34;48.80
35892;BME280;21993;42.672;23.296;2023-04-28T03:14:19;95019.63;;;8.49;48.12
35892;BME280;21993;42.672;23.296;2023-04-28T03:16:44;95010.88;;;8.50;47.32
35892;BME280;21993;42.672;23.296;2023-04-28T03:19:10;95016.56;;;8.43;48.14
35892;BME280;21993;42.672;23.296;2023-04-28T03:21:35;95012.16;;;8.44;48.06
35892;BME280;21993;42.672;23.296;2023-04-28T03:24:01;95015.59;;;8.44;47.95
35892;BME280;21993;42.672;23.296;2023-04-28T03:26:29;95020.72;;;8.46;47.39
35892;BME280;21993;42.672;23.296;2023-04-28T03:28:54;95028.09;;;8.41;47.70
35892;BME280;21993;42.672;23.296;2023-04-28T03:31:21;95031.88;;;8.48;47.70
35892;BME280;21993;42.672;23.296;2023-04-28T03:33:46;95040.81;;;8.57;46.91
35892;BME280;21993;42.672;23.296;2023-04-28T03:36:14;95043.56;;;8.55;46.62
35892;BME280;21993;42.672;23.296;2023-04-28T03:38:40;95047.84;;;8.56;46.88
35892;BME280;21993;42.672;23.296;2023-04-28T03:41:06;95054.28;;;8.63;47.48
35892;BME280;21993;42.672;23.296;2023-04-28T03:43:31;95048.41;;;8.49;47.57
35892;BME280;21993;42.672;23.296;2023-04-28T03:45:57;95055.81;;;8.55;47.27
35892;BME280;21993;42.672;23.296;2023-04-28T03:48:23;95052.81;;;8.48;47.40
35892;BME280;21993;42.672;23.296;2023-04-28T03:50:48;95060.19;;;8.43;47.62
35892;BME280;21993;42.672;23.296;2023-04-28T03:53:13;95063.50;;;8.45;47.43
35892;BME280;21993;42.672;23.296;2023-04-28T03:55:39;95062.69;;;8.44;47.20
35892;BME280;21993;42.672;23.296;2023-04-28T03:58:04;95069.19;;;8.39;47.40
35892;BME280;21993;42.672;23.296;2023-04-28T04:00:30;95072.91;;;8.48;47.59
35892;BME280;21993;42.672;23.296;2023-04-28T04:02:55;95070.53;;;8.44;47.74
35892;BME280;21993;42.672;23.296;2023-04-28T04:05:21;95072.31;;;8.44;47.18
35892;BME280;21993;42.672;23.296;2023-04-28T04:07:48;95078.38;;;8.44;47.22
35892;BME280;21993;42.672;23.296;2023-04-28T04:10:16;95084.84;;;8.52;47.31
35892;BME280;21993;42.672;23.296;2023-04-28T04:12:42;95082.41;;;8.49;46.97
35892;BME280;21993;42.672;23.296;2023-04-28T04:15:08;95087.06;;;8.45;47.52
35892;BME280;21993;42.672;23.296;2023-04-28T04:17:33;95081.59;;;8.48;47.36
35892;BME280;21993;42.672;23.296;2023-04-28T04:19:59;95089.94;;;8.53;46.84
35892;BME280;21993;42.672;23.296;2023-04-28T04:22:24;95096.72;;;8.56;46.61
35892;BME280;21993;42.672;23.296;2023-04-28T04:24:49;95089.81;;;8.55;47.62
35892;BME280;21993;42.672;23.296;2023-04-28T04:27:15;95093.38;;;8.54;47.14
35892;BME280;21993;42.672;23.296;2023-04-28T04:29:40;95103.41;;;8.60;47.50
35892;BME280;21993;42.672;23.296;2023-04-28T04:32:06;95102.72;;;8.69;47.52
35892;BME280;21993;42.672;23.296;2023-04-28T04:34:31;95100.31;;;8.66;47.27
35892;BME280;21993;42.672;23.296;2023-04-28T04:36:57;95099.75;;;8.73;46.44
35892;BME280;21993;42.672;23.296;2023-04-28T04:39:22;95107.72;;;8.72;46.42
35892;BME280;21993;42.672;23.296;2023-04-28T04:41:48;95104.28;;;8.83;46.26
35892;BME280;21993;42.672;23.296;2023-04-28T04:44:13;95109.38;;;8.73;47.43
35892;BME280;21993;42.672;23.296;2023-04-28T04:46:38;95104.38;;;8.70;47.07
35892;BME280;21993;42.672;23.296;2023-04-28T04:49:04;95112.75;;;8.75;47.42
35892;BME280;21993;42.672;23.296;2023-04-28T04:51:29;95118.00;;;8.86;46.77
35892;BME280;21993;42.672;23.296;2023-04-28T04:53:55;95117.38;;;8.83;46.48
35892;BME280;21993;42.672;23.296;2023-04-28T04:56:20;95115.75;;;8.93;46.29
35892;BME280;21993;42.672;23.296;2023-04-28T04:58:50;95119.69;;;8.98;46.91
35892;BME280;21993;42.672;23.296;2023-04-28T05:01:16;95124.00;;;9.11;46.35
35892;BME280;21993;42.672;23.296;2023-04-28T05:03:41;95123.63;;;9.15;46.49
35892;BME280;21993;42.672;23.296;2023-04-28T05:06:07;95125.91;;;9.20;46.63
35892;BME280;21993;42.672;23.296;2023-04-28T05:08:32;95122.59;;;9.29;46.40
35892;BME280;21993;42.672;23.296;2023-04-28T05:10:57;95129.63;;;9.40;45.57
35892;BME280;21993;42.672;23.296;2023-04-28T05:13:23;95128.31;;;9.56;45.95
35892;BME280;21993;42.672;23.296;2023-04-28T05:15:48;95120.56;;;9.66;45.28
35892;BME280;21993;42.672;23.296;2023-04-28T05:18:14;95125.81;;;9.77;45.67
35892;BME280;21993;42.672;23.296;2023-04-28T05:20:39;95131.06;;;9.77;45.39
35892;BME280;21993;42.672;23.296;2023-04-28T05:23:05;95130.25;;;9.77;45.41
35892;BME280;21993;42.672;23.296;2023-04-28T05:25:31;95142.72;;;9.73;45.87
35892;BME280;21993;42.672;23.296;2023-04-28T05:27:56;95139.16;;;9.63;46.71
35892;BME280;21993;42.672;23.296;2023-04-28T05:30:22;95137.16;;;9.78;46.42
35892;BME280;21993;42.672;23.296;2023-04-28T05:32:47;95128.91;;;9.82;46.49
35892;BME280;21993;42.672;23.296;2023-04-28T05:35:12;95125.91;;;9.98;45.68
35892;BME280;21993;42.672;23.296;2023-04-28T05:37:39;95121.94;;;10.15;45.72
35892;BME280;21993;42.672;23.296;2023-04-28T05:40:09;95122.19;;;10.23;45.99
35892;BME280;21993;42.672;23.296;2023-04-28T05:42:35;95120.16;;;10.27;45.64
35892;BME280;21993;42.672;23.296;2023-04-28T05:45:00;95116.72;;;10.26;45.91
35892;BME280;21993;42.672;23.296;2023-04-28T05:47:26;95126.41;;;10.47;45.49
35892;BME280;21993;42.672;23.296;2023-04-28T05:49:52;95126.38;;;10.58;45.28
35892;BME280;21993;42.672;23.296;2023-04-28T05:52:17;95118.63;;;10.56;44.80
35892;BME280;21993;42.672;23.296;2023-04-28T05:54:43;95120.34;;;10.67;44.76
35892;BME280;21993;42.672;23.296;2023-04-28T05:57:08;95127.69;;;10.84;44.49
35892;BME280;21993;42.672;23.296;2023-04-28T05:59:34;95120.84;;;10.93;44.05
35892;BME280;21993;42.672;23.296;2023-04-28T06:01:59;95129.66;;;10.92;43.29
35892;BME280;21993;42.672;23.296;2023-04-28T06:04:24;95121.44;;;10.96;43.38
35892;BME280;21993;42.672;23.296;2023-04-28T06:06:50;95125.63;;;11.09;42.85
35892;BME280;21993;42.672;23.296;2023-04-28T06:09:16;95118.09;;;11.15;42.87
35892;BME280;21993;42.672;23.296;2023-04-28T06:11:41;95124.94;;;11.27;42.87
35892;BME280;21993;42.672;23.296;2023-04-28T06:14:07;95118.63;;;11.40;42.19
35892;BME280;21993;42.672;23.296;2023-04-28T06:16:32;95121.94;;;11.63;42.25
35892;BME280;21993;42.672;23.296;2023-04-28T06:18:58;95128.44;;;11.68;41.59
35892;BME280;21993;42.672;23.296;2023-04-28T06:21:23;95127.91;;;11.65;41.55
35892;BME280;21993;42.672;23.296;2023-04-28T06:23:49;95127.69;;;11.77;41.83
35892;BME280;21993;42.672;23.296;2023-04-28T06:26:15;95120.69;;;11.88;41.31
35892;BME280;21993;42.672;23.296;2023-04-28T06:28:40;95128.50;;;12.08;40.88
35892;BME280;21993;42.672;23.296;2023-04-28T06:31:06;95126.66;;;11.99;40.99
35892;BME280;21993;42.672;23.296;2023-04-28T06:33:31;95118.25;;;12.05;40.50
35892;BME280;21993;42.672;23.296;2023-04-28T06:35:57;95132.56;;;12.32;45.98
35892;BME280;21993;42.672;23.296;2023-04-28T06:38:22;95119.03;;;12.56;41.01
35892;BME280;21993;42.672;23.296;2023-04-28T06:40:48;95118.44;;;12.52;39.97
35892;BME280;21993;42.672;23.296;2023-04-28T06:43:13;95117.66;;;12.61;39.67
35892;BME280;21993;42.672;23.296;2023-04-28T06:45:39;95114.31;;;12.69;39.49
35892;BME280;21993;42.672;23.296;2023-04-28T06:48:04;95106.44;;;12.79;39.52
35892;BME280;21993;42.672;23.296;2023-04-28T06:50:30;95114.03;;;12.72;39.34
35892;BME280;21993;42.672;23.296;2023-04-28T06:52:56;95116.53;;;12.83;39.15
35892;BME280;21993;42.672;23.296;2023-04-28T06:55:23;95109.75;;;12.81;39.86
35892;BME280;21993;42.672;23.296;2023-04-28T06:57:48;95112.50;;;12.99;39.86
35892;BME280;21993;42.672;23.296;2023-04-28T07:00:14;95105.72;;;12.96;38.90
35892;BME280;21993;42.672;23.296;2023-04-28T07:02:39;95109.56;;;13.02;38.79
35892;BME280;21993;42.672;23.296;2023-04-28T07:05:07;95118.72;;;13.17;39.19
35892;BME280;21993;42.672;23.296;2023-04-28T07:07:33;95118.19;;;13.23;39.15
35892;BME280;21993;42.672;23.296;2023-04-28T07:09:59;95109.28;;;13.34;38.45
35892;BME280;21993;42.672;23.296;2023-04-28T07:12:26;95105.16;;;13.12;39.07
35892;BME280;21993;42.672;23.296;2023-04-28T07:14:52;95111.78;;;13.16;39.01
35892;BME280;21993;42.672;23.296;2023-04-28T07:17:17;95103.91;;;13.06;39.29
35892;BME280;21993;42.672;23.296;2023-04-28T07:19:48;95106.81;;;13.22;39.05
35892;BME280;21993;42.672;23.296;2023-04-28T07:22:16;95109.84;;;13.28;38.60
35892;BME280;21993;42.672;23.296;2023-04-28T07:24:43;95105.13;;;13.31;37.98
35892;BME280;21993;42.672;23.296;2023-04-28T07:27:08;95111.22;;;13.41;38.79
35892;BME280;21993;42.672;23.296;2023-04-28T07:29:34;95103.28;;;13.41;38.42
35892;BME280;21993;42.672;23.296;2023-04-28T07:32:02;95098.97;;;13.50;38.03
35892;BME280;21993;42.672;23.296;2023-04-28T07:34:33;95097.47;;;13.47;38.90
35892;BME280;21993;42.672;23.296;2023-04-28T07:36:59;95100.59;;;13.61;38.22
35892;BME280;21993;42.672;23.296;2023-04-28T07:39:25;95100.81;;;13.77;38.74
35892;BME280;21993;42.672;23.296;2023-04-28T07:41:51;95098.31;;;14.03;39.74
35892;BME280;21993;42.672;23.296;2023-04-28T07:44:16;95096.41;;;14.23;37.64
35892;BME280;21993;42.672;23.296;2023-04-28T07:46:50;95098.00;;;14.16;36.90
35892;BME280;21993;42.672;23.296;2023-04-28T07:49:17;95100.53;;;14.07;36.94
35892;BME280;21993;42.672;23.296;2023-04-28T07:51:42;95102.19;;;14.08;36.87
35892;BME280;21993;42.672;23.296;2023-04-28T07:54:08;95098.75;;;14.26;36.61
35892;BME280;21993;42.672;23.296;2023-04-28T07:56:33;95085.84;;;14.23;36.32
35892;BME280;21993;42.672;23.296;2023-04-28T07:58:59;95088.03;;;14.27;36.56
35892;BME280;21993;42.672;23.296;2023-04-28T08:01:26;95088.94;;;14.36;35.93
35892;BME280;21993;42.672;23.296;2023-04-28T08:03:51;95085.47;;;14.35;36.14
35892;BME280;21993;42.672;23.296;2023-04-28T08:06:17;95092.06;;;14.31;36.31
35892;BME280;21993;42.672;23.296;2023-04-28T08:08:43;95100.19;;;14.48;35.78
35892;BME280;21993;42.672;23.296;2023-04-28T08:11:08;95087.81;;;14.48;36.10
35892;BME280;21993;42.672;23.296;2023-04-28T08:13:34;95087.25;;;14.62;35.41
35892;BME280;21993;42.672;23.296;2023-04-28T08:15:59;95090.13;;;14.69;35.33
35892;BME280;21993;42.672;23.296;2023-04-28T08:18:26;95090.81;;;14.71;36.01
35892;BME280;21993;42.672;23.296;2023-04-28T08:20:51;95085.31;;;14.64;35.61
35892;BME280;21993;42.672;23.296;2023-04-28T08:23:17;95089.47;;;14.67;34.56
35892;BME280;21993;42.672;23.296;2023-04-28T08:25:42;95094.59;;;14.69;35.86
35892;BME280;21993;42.672;23.296;2023-04-28T08:28:07;95087.41;;;14.79;34.83
35892;BME280;21993;42.672;23.296;2023-04-28T08:30:34;95086.22;;;14.91;34.36
35892;BME280;21993;42.672;23.296;2023-04-28T08:33:03;95078.50;;;14.98;34.43
35892;BME280;21993;42.672;23.296;2023-04-28T08:35:32;95081.91;;;14.90;35.24
35892;BME280;21993;42.672;23.296;2023-04-28T08:38:00;95078.66;;;14.78;35.84
35892;BME280;21993;42.672;23.296;2023-04-28T08:40:26;95065.72;;;14.93;34.73
35892;BME280;21993;42.672;23.296;2023-04-28T08:42:57;95075.84;;;14.98;34.56
35892;BME280;21993;42.672;23.296;2023-04-28T08:45:23;95071.53;;;15.14;34.24
35892;BME280;21993;42.672;23.296;2023-04-28T08:47:50;95077.75;;;15.05;34.51
35892;BME280;21993;42.672;23.296;2023-04-28T08:50:20;95075.28;;;15.12;34.70
35892;BME280;21993;42.672;23.296;2023-04-28T08:52:47;95085.72;;;15.13;34.82
35892;BME280;21993;42.672;23.296;2023-04-28T08:55:12;95065.88;;;15.35;34.11
35892;BME280;21993;42.672;23.296;2023-04-28T08:57:44;95072.50;;;15.39;33.52
35892;BME280;21993;42.672;23.296;2023-04-28T09:00:11;95071.88;;;15.45;33.95
35892;BME280;21993;42.672;23.296;2023-04-28T09:02:37;95072.75;;;15.54;34.39
35892;BME280;21993;42.672;23.296;2023-04-28T09:05:06;95074.56;;;15.54;34.17
35892;BME280;21993;42.672;23.296;2023-04-28T09:07:32;95066.84;;;15.60;33.81
35892;BME280;21993;42.672;23.296;2023-04-28T09:12:46;95062.84;;;15.82;33.38
35892;BME280;21993;42.672;23.296;2023-04-28T09:17:51;95046.03;;;15.99;33.47
35892;BME280;21993;42.672;23.296;2023-04-28T09:20:25;95048.00;;;15.89;33.13
35892;BME280;21993;42.672;23.296;2023-04-28T09:22:52;95050.69;;;16.14;32.96
35892;BME280;21993;42.672;23.296;2023-04-28T09:25:18;95041.31;;;16.27;35.99
35892;BME280;21993;42.672;23.296;2023-04-28T09:27:45;95036.53;;;16.55;45.79
35892;BME280;21993;42.672;23.296;2023-04-28T09:30:11;95025.97;;;16.96;34.52
35892;BME280;21993;42.672;23.296;2023-04-28T09:32:37;95038.94;;;16.99;35.37
35892;BME280;21993;42.672;23.296;2023-04-28T09:35:03;95029.63;;;17.11;32.26
35892;BME280;21993;42.672;23.296;2023-04-28T09:37:29;95026.63;;;17.06;31.20
35892;BME280;21993;42.672;23.296;2023-04-28T09:39:56;95026.16;;;17.03;30.75
35892;BME280;21993;42.672;23.296;2023-04-28T09:42:34;95027.81;;;16.79;31.92
35892;BME280;21993;42.672;23.296;2023-04-28T09:45:01;95017.03;;;16.73;32.28
35892;BME280;21993;42.672;23.296;2023-04-28T09:47:28;95012.38;;;16.67;32.48
35892;BME280;21993;42.672;23.296;2023-04-28T09:49:55;95014.06;;;16.84;31.98
35892;BME280;21993;42.672;23.296;2023-04-28T09:52:21;95020.03;;;16.86;32.02
35892;BME280;21993;42.672;23.296;2023-04-28T09:54:53;95015.72;;;16.85;32.05
35892;BME280;21993;42.672;23.296;2023-04-28T09:57:19;95014.38;;;16.81;32.36
35892;BME280;21993;42.672;23.296;2023-04-28T09:59:50;95009.41;;;16.94;31.96
35892;BME280;21993;42.672;23.296;2023-04-28T10:02:17;95004.09;;;16.94;31.43
35892;BME280;21993;42.672;23.296;2023-04-28T10:04:45;95007.94;;;16.92;31.07
35892;BME280;21993;42.672;23.296;2023-04-28T10:07:11;94985.06;;;16.82;31.15
35892;BME280;21993;42.672;23.296;2023-04-28T10:09:39;94989.38;;;16.83;31.53
35892;BME280;21993;42.672;23.296;2023-04-28T10:12:09;94999.97;;;16.92;31.28
35892;BME280;21993;42.672;23.296;2023-04-28T10:14:35;94988.53;;;16.91;31.50
35892;BME280;21993;42.672;23.296;2023-04-28T10:17:02;94990.00;;;17.02;31.12
35892;BME280;21993;42.672;23.296;2023-04-28T10:19:27;94985.13;;;17.30;30.21
35892;BME280;21993;42.672;23.296;2023-04-28T10:22:51;94977.47;;;17.43;30.46
35892;BME280;21993;42.672;23.296;2023-04-28T10:27:41;94981.47;;;17.31;30.29
35892;BME280;21993;42.672;23.296;2023-04-28T10:30:15;94973.28;;;17.49;30.74
35892;BME280;21993;42.672;23.296;2023-04-28T10:32:42;94975.28;;;17.55;30.52
35892;BME280;21993;42.672;23.296;2023-04-28T10:38:21;94985.75;;;17.48;30.82
35892;BME280;21993;42.672;23.296;2023-04-28T10:40:51;94976.53;;;17.28;30.08
35892;BME280;21993;42.672;23.296;2023-04-28T10:48:22;94948.25;;;17.51;29.64
35892;BME280;21993;42.672;23.296;2023-04-28T10:56:18;94942.38;;;17.72;29.45
35892;BME280;21993;42.672;23.296;2023-04-28T10:58:48;94927.72;;;17.84;29.28
35892;BME280;21993;42.672;23.296;2023-04-28T11:06:18;94937.63;;;17.90;28.93
35892;BME280;21993;42.672;23.296;2023-04-28T11:08:49;94947.13;;;17.85;28.52
35892;BME280;21993;42.672;23.296;2023-04-28T11:11:16;94927.13;;;17.97;29.30
35892;BME280;21993;42.672;23.296;2023-04-28T11:13:42;94930.44;;;17.99;29.16
35892;BME280;21993;42.672;23.296;2023-04-28T11:16:13;94927.22;;;18.12;28.96
35892;BME280;21993;42.672;23.296;2023-04-28T11:18:59;94925.44;;;18.04;28.88
35892;BME280;21993;42.672;23.296;2023-04-28T11:21:28;94921.19;;;17.95;28.91
35892;BME280;21993;42.672;23.296;2023-04-28T11:23:54;94922.22;;;17.86;29.93
35892;BME280;21993;42.672;23.296;2023-04-28T11:26:20;94912.63;;;17.85;29.45
35892;BME280;21993;42.672;23.296;2023-04-28T11:28:53;94913.06;;;17.88;29.58
35892;BME280;21993;42.672;23.296;2023-04-28T11:31:19;94911.13;;;17.82;28.77
35892;BME280;21993;42.672;23.296;2023-04-28T11:33:59;94912.63;;;17.85;28.98
35892;BME280;21993;42.672;23.296;2023-04-28T11:36:38;94897.91;;;17.97;29.01
35892;BME280;21993;42.672;23.296;2023-04-28T11:39:05;94904.13;;;18.12;28.47
35892;BME280;21993;42.672;23.296;2023-04-28T11:41:32;94905.31;;;18.10;29.05
35892;BME280;21993;42.672;23.296;2023-04-28T11:43:59;94901.41;;;18.20;28.59
35892;BME280;21993;42.672;23.296;2023-04-28T11:46:25;94900.34;;;18.29;28.58
35892;BME280;21993;42.672;23.296;2023-04-28T11:49:02;94909.97;;;18.31;28.26
35892;BME280;21993;42.672;23.296;2023-04-28T11:51:36;94896.09;;;18.43;28.42
35892;BME280;21993;42.672;23.296;2023-04-28T11:54:04;94892.94;;;18.40;27.46
35892;BME280;21993;42.672;23.296;2023-04-28T11:56:36;94896.47;;;18.17;28.18
35892;BME280;21993;42.672;23.296;2023-04-28T12:01:30;94893.19;;;18.30;28.37
35892;BME280;21993;42.672;23.296;2023-04-28T12:03:56;94892.22;;;18.46;28.32
35892;BME280;21993;42.672;23.296;2023-04-28T12:06:23;94891.72;;;18.50;28.88
35892;BME280;21993;42.672;23.296;2023-04-28T12:08:48;94885.94;;;18.62;28.28
35892;BME280;21993;42.672;23.296;2023-04-28T12:11:14;94875.56;;;18.52;28.33
35892;BME280;21993;42.672;23.296;2023-04-28T12:13:42;94885.38;;;18.51;27.56
35892;BME280;21993;42.672;23.296;2023-04-28T12:16:07;94876.47;;;18.44;27.95
35892;BME280;21993;42.672;23.296;2023-04-28T12:18:36;94874.72;;;18.37;28.33
35892;BME280;21993;42.672;23.296;2023-04-28T12:21:03;94874.78;;;18.28;27.86
35892;BME280;21993;42.672;23.296;2023-04-28T12:23:34;94872.34;;;18.42;28.46
35892;BME280;21993;42.672;23.296;2023-04-28T12:26:01;94864.38;;;18.42;28.78
35892;BME280;21993;42.672;23.296;2023-04-28T12:28:40;94857.75;;;18.38;28.16
35892;BME280;21993;42.672;23.296;2023-04-28T12:31:08;94859.28;;;18.32;28.53
35892;BME280;21993;42.672;23.296;2023-04-28T12:33:34;94852.63;;;18.36;28.50
35892;BME280;21993;42.672;23.296;2023-04-28T12:36:04;94852.88;;;18.41;28.47
35892;BME280;21993;42.672;23.296;2023-04-28T12:38:31;94854.38;;;18.44;28.28
35892;BME280;21993;42.672;23.296;2023-04-28T12:40:57;94858.69;;;18.45;28.69
35892;BME280;21993;42.672;23.296;2023-04-28T12:43:23;94852.88;;;18.26;28.40
35892;BME280;21993;42.672;23.296;2023-04-28T12:45:52;94853.22;;;18.23;29.01
35892;BME280;21993;42.672;23.296;2023-04-28T12:48:18;94853.44;;;18.37;28.94
35892;BME280;21993;42.672;23.296;2023-04-28T12:50:44;94843.38;;;18.47;28.31
35892;BME280;21993;42.672;23.296;2023-04-28T12:53:10;94842.09;;;18.43;28.49
35892;BME280;21993;42.672;23.296;2023-04-28T12:55:36;94842.81;;;18.37;27.89
35892;BME280;21993;42.672;23.296;2023-04-28T12:58:03;94838.63;;;18.42;28.19
35892;BME280;21993;42.672;23.296;2023-04-28T13:00:29;94826.56;;;18.17;28.67
35892;BME280;21993;42.672;23.296;2023-04-28T13:02:54;94830.31;;;18.22;29.11
35892;BME280;21993;42.672;23.296;2023-04-28T13:05:20;94826.06;;;18.13;29.33
35892;BME280;21993;42.672;23.296;2023-04-28T13:07:46;94823.56;;;18.35;28.95
35892;BME280;21993;42.672;23.296;2023-04-28T13:10:11;94817.25;;;18.36;29.08
35892;BME280;21993;42.672;23.296;2023-04-28T13:12:37;94816.88;;;18.39;28.96
35892;BME280;21993;42.672;23.296;2023-04-28T13:15:03;94811.47;;;18.47;28.44
35892;BME280;21993;42.672;23.296;2023-04-28T13:17:29;94822.00;;;18.40;29.03
35892;BME280;21993;42.672;23.296;2023-04-28T13:19:54;94821.84;;;18.42;28.77
35892;BME280;21993;42.672;23.296;2023-04-28T13:22:20;94817.16;;;18.44;28.89
35892;BME280;21993;42.672;23.296;2023-04-28T13:24:48;94812.47;;;18.46;29.33